sensor_id;sensor_type;location;lat;lon;timestamp;P1;durP1;ratioP1;P2;durP2;ratioP2
41446;SDS011;27185;52.040;4.490;2024-02-26T00:00:17;5.47;;;3.50;;
41446;SDS011;27185;52.040;4.490;2024-02-26T00:03:03;5.72;;;3.20;;
41446;SDS011;27185;52.040;4.490;2024-02-26T00:05:49;6.63;;;3.58;;
41446;SDS011;27185;52.040;4.490;2024-02-26T00:08:35;6.18;;;3.45;;
41446;SDS011;27185;52.040;4.490;2024-02-26T00:11:21;4.93;;;3.08;;
41446;SDS011;27185;52.040;4.490;2024-02-26T00:14:07;5.40;;;3.28;;
41446;SDS011;27185;52.040;4.490;2024-02-26T00:16:53;4.80;;;3.30;;
41446;SDS011;27185;52.040;4.490;2024-02-26T00:19:41;7.38;;;3.67;;
41446;SDS011;27185;52.040;4.490;2024-02-26T00:22:27;5.45;;;3.20;;
41446;SDS011;27185;52.040;4.490;2024-02-26T00:25:13;5.85;;;3.67;;
41446;SDS011;27185;52.040;4.490;2024-02-26T00:27:59;4.45;;;2.78;;
41446;SDS011;27185;52.040;4.490;2024-02-26T00:30:45;4.40;;;3.10;;
41446;SDS011;27185;52.040;4.490;2024-02-26T00:33:31;5.68;;;3.58;;
41446;SDS011;27185;52.040;4.490;2024-02-26T00:36:17;5.18;;;3.33;;
41446;SDS011;27185;52.040;4.490;2024-02-26T00:39:03;4.15;;;3.00;;
41446;SDS011;27185;52.040;4.490;2024-02-26T00:41:49;6.50;;;3.72;;
41446;SDS011;27185;52.040;4.490;2024-02-26T00:44:36;5.95;;;3.65;;
41446;SDS011;27185;52.040;4.490;2024-02-26T00:47:22;6.60;;;3.83;;
41446;SDS011;27185;52.040;4.490;2024-02-26T00:50:08;5.88;;;3.67;;
41446;SDS011;27185;52.040;4.490;2024-02-26T00:52:55;5.07;;;3.33;;
41446;SDS011;27185;52.040;4.490;2024-02-26T00:55:41;6.10;;;3.85;;
41446;SDS011;27185;52.040;4.490;2024-02-26T00:58:27;5.80;;;3.85;;
41446;SDS011;27185;52.040;4.490;2024-02-26T01:01:13;9.05;;;4.20;;
41446;SDS011;27185;52.040;4.490;2024-02-26T01:03:58;6.57;;;4.47;;
41446;SDS011;27185;52.040;4.490;2024-02-26T01:06:44;6.82;;;4.07;;
41446;SDS011;27185;52.040;4.490;2024-02-26T01:09:30;6.03;;;4.50;;
41446;SDS011;27185;52.040;4.490;2024-02-26T01:12:17;6.93;;;4.20;;
41446;SDS011;27185;52.040;4.490;2024-02-26T01:15:03;6.22;;;3.90;;
41446;SDS011;27185;52.040;4.490;2024-02-26T01:17:52;7.95;;;3.78;;
41446;SDS011;27185;52.040;4.490;2024-02-26T01:20:38;5.10;;;3.75;;
41446;SDS011;27185;52.040;4.490;2024-02-26T01:23:24;7.18;;;4.60;;
41446;SDS011;27185;52.040;4.490;2024-02-26T01:26:10;4.88;;;3.65;;
41446;SDS011;27185;52.040;4.490;2024-02-26T01:28:56;7.00;;;4.00;;
41446;SDS011;27185;52.040;4.490;2024-02-26T01:31:42;7.97;;;4.35;;
41446;SDS011;27185;52.040;4.490;2024-02-26T01:34:28;6.07;;;3.70;;
41446;SDS011;27185;52.040;4.490;2024-02-26T01:37:14;7.72;;;3.75;;
41446;SDS011;27185;52.040;4.490;2024-02-26T01:40:00;6.63;;;4.18;;
41446;SDS011;27185;52.040;4.490;2024-02-26T01:42:49;9.00;;;4.80;;
41446;SDS011;27185;52.040;4.490;2024-02-26T01:45:40;6.07;;;3.50;;
41446;SDS011;27185;52.040;4.490;2024-02-26T01:48:26;6.93;;;4.38;;
41446;SDS011;27185;52.040;4.490;2024-02-26T01:51:12;7.82;;;4.65;;
41446;SDS011;27185;52.040;4.490;2024-02-26T01:53:59;6.80;;;4.72;;
41446;SDS011;27185;52.040;4.490;2024-02-26T01:56:48;6.85;;;4.53;;
41446;SDS011;27185;52.040;4.490;2024-02-26T01:59:36;6.68;;;4.60;;
41446;SDS011;27185;52.040;4.490;2024-02-26T02:02:23;6.10;;;5.05;;
41446;SDS011;27185;52.040;4.490;2024-02-26T02:05:09;7.30;;;5.18;;
41446;SDS011;27185;52.040;4.490;2024-02-26T02:07:57;5.90;;;5.00;;
41446;SDS011;27185;52.040;4.490;2024-02-26T02:10:43;6.13;;;4.75;;
41446;SDS011;27185;52.040;4.490;2024-02-26T02:13:32;8.35;;;6.13;;
41446;SDS011;27185;52.040;4.490;2024-02-26T02:16:18;8.05;;;5.70;;
41446;SDS011;27185;52.040;4.490;2024-02-26T02:19:04;6.80;;;5.32;;
41446;SDS011;27185;52.040;4.490;2024-02-26T02:21:49;8.30;;;5.95;;
41446;SDS011;27185;52.040;4.490;2024-02-26T02:24:35;9.80;;;6.35;;
41446;SDS011;27185;52.040;4.490;2024-02-26T02:27:22;7.80;;;6.47;;
41446;SDS011;27185;52.040;4.490;2024-02-26T02:30:10;9.35;;;7.28;;
41446;SDS011;27185;52.040;4.490;2024-02-26T02:32:56;8.90;;;6.85;;
41446;SDS011;27185;52.040;4.490;2024-02-26T02:35:45;7.72;;;6.28;;
41446;SDS011;27185;52.040;4.490;2024-02-26T02:38:31;10.05;;;7.18;;
41446;SDS011;27185;52.040;4.490;2024-02-26T02:41:19;13.20;;;7.50;;
41446;SDS011;27185;52.040;4.490;2024-02-26T02:44:04;9.85;;;7.00;;
41446;SDS011;27185;52.040;4.490;2024-02-26T02:46:50;8.38;;;7.05;;
41446;SDS011;27185;52.040;4.490;2024-02-26T02:49:39;9.40;;;6.75;;
41446;SDS011;27185;52.040;4.490;2024-02-26T02:52:25;11.45;;;6.68;;
41446;SDS011;27185;52.040;4.490;2024-02-26T02:55:12;13.18;;;7.38;;
41446;SDS011;27185;52.040;4.490;2024-02-26T02:57:59;8.35;;;7.05;;
41446;SDS011;27185;52.040;4.490;2024-02-26T03:00:45;8.75;;;6.47;;
41446;SDS011;27185;52.040;4.490;2024-02-26T03:03:31;7.75;;;6.03;;
41446;SDS011;27185;52.040;4.490;2024-02-26T03:06:17;7.70;;;6.43;;
41446;SDS011;27185;52.040;4.490;2024-02-26T03:09:03;7.43;;;5.80;;
41446;SDS011;27185;52.040;4.490;2024-02-26T03:11:49;9.13;;;5.95;;
41446;SDS011;27185;52.040;4.490;2024-02-26T03:14:36;12.02;;;6.95;;
41446;SDS011;27185;52.040;4.490;2024-02-26T03:17:22;9.60;;;6.88;;
41446;SDS011;27185;52.040;4.490;2024-02-26T03:20:09;8.65;;;5.95;;
41446;SDS011;27185;52.040;4.490;2024-02-26T03:22:55;7.78;;;5.88;;
41446;SDS011;27185;52.040;4.490;2024-02-26T03:25:42;8.88;;;6.25;;
41446;SDS011;27185;52.040;4.490;2024-02-26T03:28:32;9.38;;;6.05;;
41446;SDS011;27185;52.040;4.490;2024-02-26T03:31:19;8.48;;;6.30;;
41446;SDS011;27185;52.040;4.490;2024-02-26T03:34:06;10.00;;;7.45;;
41446;SDS011;27185;52.040;4.490;2024-02-26T03:36:52;10.80;;;7.05;;
41446;SDS011;27185;52.040;4.490;2024-02-26T03:39:38;11.02;;;7.35;;
41446;SDS011;27185;52.040;4.490;2024-02-26T03:42:24;9.65;;;6.35;;
41446;SDS011;27185;52.040;4.490;2024-02-26T03:45:10;10.57;;;7.13;;
41446;SDS011;27185;52.040;4.490;2024-02-26T03:47:55;8.98;;;6.20;;
41446;SDS011;27185;52.040;4.490;2024-02-26T03:50:41;9.27;;;6.85;;
41446;SDS011;27185;52.040;4.490;2024-02-26T03:53:27;13.95;;;7.80;;
41446;SDS011;27185;52.040;4.490;2024-02-26T03:56:13;11.60;;;7.88;;
41446;SDS011;27185;52.040;4.490;2024-02-26T03:58:59;12.15;;;7.32;;
41446;SDS011;27185;52.040;4.490;2024-02-26T04:01:47;10.20;;;7.25;;
41446;SDS011;27185;52.040;4.490;2024-02-26T04:04:34;10.73;;;7.65;;
41446;SDS011;27185;52.040;4.490;2024-02-26T04:07:20;10.20;;;7.93;;
41446;SDS011;27185;52.040;4.490;2024-02-26T04:10:09;10.77;;;8.35;;
41446;SDS011;27185;52.040;4.490;2024-02-26T04:12:56;11.88;;;8.98;;
41446;SDS011;27185;52.040;4.490;2024-02-26T04:15:42;13.05;;;9.35;;
41446;SDS011;27185;52.040;4.490;2024-02-26T04:18:29;12.23;;;8.70;;
41446;SDS011;27185;52.040;4.490;2024-02-26T04:21:15;11.48;;;8.40;;
41446;SDS011;27185;52.040;4.490;2024-02-26T04:24:00;16.33;;;9.45;;
41446;SDS011;27185;52.040;4.490;2024-02-26T04:26:47;14.30;;;9.75;;
41446;SDS011;27185;52.040;4.490;2024-02-26T04:29:34;11.50;;;8.52;;
41446;SDS011;27185;52.040;4.490;2024-02-26T04:32:20;10.05;;;7.38;;
41446;SDS011;27185;52.040;4.490;2024-02-26T04:35:06;14.48;;;9.07;;
41446;SDS011;27185;52.040;4.490;2024-02-26T04:37:52;13.20;;;9.05;;
41446;SDS011;27185;52.040;4.490;2024-02-26T04:40:38;12.02;;;8.27;;
41446;SDS011;27185;52.040;4.490;2024-02-26T04:43:24;13.35;;;8.82;;
41446;SDS011;27185;52.040;4.490;2024-02-26T04:46:10;15.57;;;9.95;;
41446;SDS011;27185;52.040;4.490;2024-02-26T04:48:55;13.98;;;8.93;;
41446;SDS011;27185;52.040;4.490;2024-02-26T04:51:41;13.70;;;8.75;;
41446;SDS011;27185;52.040;4.490;2024-02-26T04:54:27;12.27;;;8.80;;
41446;SDS011;27185;52.040;4.490;2024-02-26T04:57:13;11.13;;;7.55;;
41446;SDS011;27185;52.040;4.490;2024-02-26T05:00:00;13.77;;;7.47;;
41446;SDS011;27185;52.040;4.490;2024-02-26T05:02:45;12.52;;;9.07;;
41446;SDS011;27185;52.040;4.490;2024-02-26T05:05:31;13.65;;;8.93;;
41446;SDS011;27185;52.040;4.490;2024-02-26T05:08:17;12.73;;;8.55;;
41446;SDS011;27185;52.040;4.490;2024-02-26T05:11:04;13.18;;;8.68;;
41446;SDS011;27185;52.040;4.490;2024-02-26T05:13:50;13.90;;;9.75;;
41446;SDS011;27185;52.040;4.490;2024-02-26T05:16:37;14.45;;;9.32;;
41446;SDS011;27185;52.040;4.490;2024-02-26T05:19:22;13.63;;;8.70;;
41446;SDS011;27185;52.040;4.490;2024-02-26T05:22:08;13.82;;;9.45;;
41446;SDS011;27185;52.040;4.490;2024-02-26T05:24:54;12.90;;;8.95;;
41446;SDS011;27185;52.040;4.490;2024-02-26T05:27:40;16.05;;;8.73;;
41446;SDS011;27185;52.040;4.490;2024-02-26T05:30:29;14.60;;;9.57;;
41446;SDS011;27185;52.040;4.490;2024-02-26T05:33:15;14.15;;;9.07;;
41446;SDS011;27185;52.040;4.490;2024-02-26T05:36:01;14.43;;;8.63;;
41446;SDS011;27185;52.040;4.490;2024-02-26T05:38:49;14.13;;;9.10;;
41446;SDS011;27185;52.040;4.490;2024-02-26T05:41:35;16.13;;;9.95;;
41446;SDS011;27185;52.040;4.490;2024-02-26T05:44:22;16.95;;;10.57;;
41446;SDS011;27185;52.040;4.490;2024-02-26T05:47:08;15.53;;;9.33;;
41446;SDS011;27185;52.040;4.490;2024-02-26T05:49:53;16.75;;;9.35;;
41446;SDS011;27185;52.040;4.490;2024-02-26T05:52:40;16.27;;;9.15;;
41446;SDS011;27185;52.040;4.490;2024-02-26T05:55:26;15.00;;;8.93;;
41446;SDS011;27185;52.040;4.490;2024-02-26T05:58:12;17.90;;;9.88;;
41446;SDS011;27185;52.040;4.490;2024-02-26T06:00:59;15.07;;;9.73;;
41446;SDS011;27185;52.040;4.490;2024-02-26T06:03:45;18.52;;;9.32;;
41446;SDS011;27185;52.040;4.490;2024-02-26T06:06:31;16.23;;;10.18;;
41446;SDS011;27185;52.040;4.490;2024-02-26T06:09:17;16.70;;;10.18;;
41446;SDS011;27185;52.040;4.490;2024-02-26T06:12:03;18.08;;;10.55;;
41446;SDS011;27185;52.040;4.490;2024-02-26T06:14:49;21.73;;;10.63;;
41446;SDS011;27185;52.040;4.490;2024-02-26T06:17:35;17.95;;;10.80;;
41446;SDS011;27185;52.040;4.490;2024-02-26T06:20:21;17.80;;;11.05;;
41446;SDS011;27185;52.040;4.490;2024-02-26T06:23:07;17.92;;;11.13;;
41446;SDS011;27185;52.040;4.490;2024-02-26T06:25:55;18.98;;;11.10;;
41446;SDS011;27185;52.040;4.490;2024-02-26T06:28:41;20.70;;;12.23;;
41446;SDS011;27185;52.040;4.490;2024-02-26T06:31:26;20.17;;;11.85;;
41446;SDS011;27185;52.040;4.490;2024-02-26T06:34:12;20.13;;;12.25;;
41446;SDS011;27185;52.040;4.490;2024-02-26T06:36:58;23.52;;;12.45;;
41446;SDS011;27185;52.040;4.490;2024-02-26T06:39:44;21.55;;;11.07;;
41446;SDS011;27185;52.040;4.490;2024-02-26T06:42:30;23.08;;;14.38;;
41446;SDS011;27185;52.040;4.490;2024-02-26T06:45:17;22.30;;;13.57;;
41446;SDS011;27185;52.040;4.490;2024-02-26T06:48:04;21.33;;;13.27;;
41446;SDS011;27185;52.040;4.490;2024-02-26T06:50:50;24.20;;;14.10;;
41446;SDS011;27185;52.040;4.490;2024-02-26T06:53:36;21.60;;;13.90;;
41446;SDS011;27185;52.040;4.490;2024-02-26T06:56:23;23.08;;;14.20;;
41446;SDS011;27185;52.040;4.490;2024-02-26T06:59:08;23.40;;;13.65;;
41446;SDS011;27185;52.040;4.490;2024-02-26T07:01:54;25.88;;;16.13;;
41446;SDS011;27185;52.040;4.490;2024-02-26T07:04:43;27.17;;;15.57;;
41446;SDS011;27185;52.040;4.490;2024-02-26T07:07:29;23.38;;;15.20;;
41446;SDS011;27185;52.040;4.490;2024-02-26T07:10:15;24.65;;;16.40;;
41446;SDS011;27185;52.040;4.490;2024-02-26T07:13:01;20.92;;;13.80;;
41446;SDS011;27185;52.040;4.490;2024-02-26T07:15:47;23.98;;;16.00;;
41446;SDS011;27185;52.040;4.490;2024-02-26T07:18:33;27.63;;;16.70;;
41446;SDS011;27185;52.040;4.490;2024-02-26T07:21:18;24.52;;;16.00;;
41446;SDS011;27185;52.040;4.490;2024-02-26T07:24:05;24.42;;;16.35;;
41446;SDS011;27185;52.040;4.490;2024-02-26T07:26:51;27.20;;;17.60;;
41446;SDS011;27185;52.040;4.490;2024-02-26T07:29:39;24.05;;;14.20;;
41446;SDS011;27185;52.040;4.490;2024-02-26T07:32:25;24.05;;;14.50;;
41446;SDS011;27185;52.040;4.490;2024-02-26T07:35:11;24.05;;;15.23;;
41446;SDS011;27185;52.040;4.490;2024-02-26T07:37:57;22.00;;;15.77;;
41446;SDS011;27185;52.040;4.490;2024-02-26T07:40:42;22.60;;;16.02;;
41446;SDS011;27185;52.040;4.490;2024-02-26T07:43:28;19.85;;;14.68;;
41446;SDS011;27185;52.040;4.490;2024-02-26T07:46:14;20.90;;;14.18;;
41446;SDS011;27185;52.040;4.490;2024-02-26T07:49:00;23.95;;;14.23;;
41446;SDS011;27185;52.040;4.490;2024-02-26T07:51:48;17.95;;;12.20;;
41446;SDS011;27185;52.040;4.490;2024-02-26T07:54:34;20.15;;;12.68;;
41446;SDS011;27185;52.040;4.490;2024-02-26T07:57:20;20.55;;;13.30;;
41446;SDS011;27185;52.040;4.490;2024-02-26T08:00:06;16.40;;;10.90;;
41446;SDS011;27185;52.040;4.490;2024-02-26T08:02:54;16.20;;;10.77;;
41446;SDS011;27185;52.040;4.490;2024-02-26T08:05:39;18.02;;;11.50;;
41446;SDS011;27185;52.040;4.490;2024-02-26T08:08:27;13.15;;;9.95;;
41446;SDS011;27185;52.040;4.490;2024-02-26T08:11:16;13.82;;;9.52;;
41446;SDS011;27185;52.040;4.490;2024-02-26T08:14:02;12.63;;;8.55;;
41446;SDS011;27185;52.040;4.490;2024-02-26T08:16:48;12.48;;;8.43;;
41446;SDS011;27185;52.040;4.490;2024-02-26T08:19:34;12.57;;;8.57;;
41446;SDS011;27185;52.040;4.490;2024-02-26T08:22:20;11.48;;;8.13;;
41446;SDS011;27185;52.040;4.490;2024-02-26T08:25:06;10.10;;;7.05;;
41446;SDS011;27185;52.040;4.490;2024-02-26T08:27:54;9.68;;;6.55;;
41446;SDS011;27185;52.040;4.490;2024-02-26T08:30:40;10.82;;;6.70;;
41446;SDS011;27185;52.040;4.490;2024-02-26T08:33:25;9.15;;;6.65;;
41446;SDS011;27185;52.040;4.490;2024-02-26T08:36:12;8.63;;;6.03;;
41446;SDS011;27185;52.040;4.490;2024-02-26T08:39:00;9.88;;;6.10;;
41446;SDS011;27185;52.040;4.490;2024-02-26T08:41:46;9.00;;;6.22;;
41446;SDS011;27185;52.040;4.490;2024-02-26T08:44:31;9.20;;;6.63;;
41446;SDS011;27185;52.040;4.490;2024-02-26T08:47:17;9.52;;;6.47;;
41446;SDS011;27185;52.040;4.490;2024-02-26T08:50:03;8.85;;;6.18;;
41446;SDS011;27185;52.040;4.490;2024-02-26T08:52:49;9.10;;;6.13;;
41446;SDS011;27185;52.040;4.490;2024-02-26T08:55:35;10.73;;;6.03;;
41446;SDS011;27185;52.040;4.490;2024-02-26T08:58:21;6.82;;;5.00;;
41446;SDS011;27185;52.040;4.490;2024-02-26T09:01:07;7.72;;;4.93;;
41446;SDS011;27185;52.040;4.490;2024-02-26T09:03:52;7.38;;;4.90;;
41446;SDS011;27185;52.040;4.490;2024-02-26T09:06:38;8.27;;;5.68;;
41446;SDS011;27185;52.040;4.490;2024-02-26T09:09:24;8.48;;;5.28;;
41446;SDS011;27185;52.040;4.490;2024-02-26T09:12:11;7.90;;;4.90;;
41446;SDS011;27185;52.040;4.490;2024-02-26T09:14:57;7.55;;;5.13;;
41446;SDS011;27185;52.040;4.490;2024-02-26T09:17:42;11.20;;;5.68;;
41446;SDS011;27185;52.040;4.490;2024-02-26T09:20:29;7.57;;;5.10;;
41446;SDS011;27185;52.040;4.490;2024-02-26T09:23:15;6.47;;;4.53;;
41446;SDS011;27185;52.040;4.490;2024-02-26T09:26:01;7.38;;;5.15;;
41446;SDS011;27185;52.040;4.490;2024-02-26T09:28:47;6.97;;;4.80;;
41446;SDS011;27185;52.040;4.490;2024-02-26T09:31:33;6.43;;;4.70;;
41446;SDS011;27185;52.040;4.490;2024-02-26T09:34:19;7.03;;;4.53;;
41446;SDS011;27185;52.040;4.490;2024-02-26T09:37:04;8.80;;;4.72;;
41446;SDS011;27185;52.040;4.490;2024-02-26T09:39:50;7.05;;;4.28;;
41446;SDS011;27185;52.040;4.490;2024-02-26T09:42:36;8.18;;;4.60;;
41446;SDS011;27185;52.040;4.490;2024-02-26T09:45:22;7.88;;;4.82;;
41446;SDS011;27185;52.040;4.490;2024-02-26T09:48:12;7.38;;;4.72;;
41446;SDS011;27185;52.040;4.490;2024-02-26T09:51:00;7.47;;;3.70;;
41446;SDS011;27185;52.040;4.490;2024-02-26T09:56:33;8.40;;;4.10;;
41446;SDS011;27185;52.040;4.490;2024-02-26T09:59:20;7.35;;;4.10;;
41446;SDS011;27185;52.040;4.490;2024-02-26T10:02:07;8.00;;;3.80;;
41446;SDS011;27185;52.040;4.490;2024-02-26T10:04:56;7.75;;;3.97;;
41446;SDS011;27185;52.040;4.490;2024-02-26T10:07:46;6.10;;;4.63;;
41446;SDS011;27185;52.040;4.490;2024-02-26T10:10:32;6.75;;;4.32;;
41446;SDS011;27185;52.040;4.490;2024-02-26T10:13:18;9.93;;;4.75;;
41446;SDS011;27185;52.040;4.490;2024-02-26T10:16:05;6.10;;;4.25;;
41446;SDS011;27185;52.040;4.490;2024-02-26T10:18:52;8.38;;;5.13;;
41446;SDS011;27185;52.040;4.490;2024-02-26T10:21:41;6.63;;;4.88;;
41446;SDS011;27185;52.040;4.490;2024-02-26T10:24:28;8.43;;;4.45;;
41446;SDS011;27185;52.040;4.490;2024-02-26T10:27:14;7.85;;;4.05;;
41446;SDS011;27185;52.040;4.490;2024-02-26T10:30:03;6.53;;;4.07;;
41446;SDS011;27185;52.040;4.490;2024-02-26T10:33:00;6.57;;;4.43;;
41446;SDS011;27185;52.040;4.490;2024-02-26T10:35:46;8.00;;;4.53;;
41446;SDS011;27185;52.040;4.490;2024-02-26T10:38:32;8.32;;;4.80;;
41446;SDS011;27185;52.040;4.490;2024-02-26T10:41:19;6.03;;;4.30;;
41446;SDS011;27185;52.040;4.490;2024-02-26T10:44:04;7.93;;;5.10;;
41446;SDS011;27185;52.040;4.490;2024-02-26T10:46:50;9.70;;;5.55;;
41446;SDS011;27185;52.040;4.490;2024-02-26T10:49:36;6.95;;;4.20;;
41446;SDS011;27185;52.040;4.490;2024-02-26T10:52:22;9.35;;;4.97;;
41446;SDS011;27185;52.040;4.490;2024-02-26T10:55:13;8.52;;;4.50;;
41446;SDS011;27185;52.040;4.490;2024-02-26T10:58:03;8.93;;;4.95;;
41446;SDS011;27185;52.040;4.490;2024-02-26T11:00:50;7.35;;;4.47;;
41446;SDS011;27185;52.040;4.490;2024-02-26T11:03:36;6.10;;;4.50;;
41446;SDS011;27185;52.040;4.490;2024-02-26T11:06:24;6.63;;;4.43;;
41446;SDS011;27185;52.040;4.490;2024-02-26T11:09:12;7.87;;;4.70;;
41446;SDS011;27185;52.040;4.490;2024-02-26T11:12:01;13.45;;;4.80;;
41446;SDS011;27185;52.040;4.490;2024-02-26T11:14:47;6.45;;;3.97;;
41446;SDS011;27185;52.040;4.490;2024-02-26T11:20:23;6.57;;;4.55;;
41446;SDS011;27185;52.040;4.490;2024-02-26T11:23:10;7.22;;;4.72;;
41446;SDS011;27185;52.040;4.490;2024-02-26T11:25:56;6.50;;;4.10;;
41446;SDS011;27185;52.040;4.490;2024-02-26T11:28:44;6.60;;;4.70;;
41446;SDS011;27185;52.040;4.490;2024-02-26T11:31:31;6.43;;;4.10;;
41446;SDS011;27185;52.040;4.490;2024-02-26T11:34:17;6.22;;;4.05;;
41446;SDS011;27185;52.040;4.490;2024-02-26T11:37:12;7.90;;;5.15;;
41446;SDS011;27185;52.040;4.490;2024-02-26T11:39:59;11.85;;;4.65;;
41446;SDS011;27185;52.040;4.490;2024-02-26T11:42:47;7.10;;;4.13;;
41446;SDS011;27185;52.040;4.490;2024-02-26T11:48:24;6.05;;;3.83;;
41446;SDS011;27185;52.040;4.490;2024-02-26T11:51:10;5.22;;;3.92;;
41446;SDS011;27185;52.040;4.490;2024-02-26T11:53:57;5.47;;;3.53;;
41446;SDS011;27185;52.040;4.490;2024-02-26T11:56:43;5.13;;;3.60;;
41446;SDS011;27185;52.040;4.490;2024-02-26T11:59:37;5.35;;;3.28;;
41446;SDS011;27185;52.040;4.490;2024-02-26T12:02:40;6.72;;;3.63;;
41446;SDS011;27185;52.040;4.490;2024-02-26T12:05:33;6.95;;;3.42;;
41446;SDS011;27185;52.040;4.490;2024-02-26T12:08:19;5.75;;;3.47;;
41446;SDS011;27185;52.040;4.490;2024-02-26T12:11:14;4.82;;;2.92;;
41446;SDS011;27185;52.040;4.490;2024-02-26T12:14:00;4.50;;;2.45;;
41446;SDS011;27185;52.040;4.490;2024-02-26T12:16:48;4.05;;;2.63;;
41446;SDS011;27185;52.040;4.490;2024-02-26T12:19:36;5.10;;;2.40;;
41446;SDS011;27185;52.040;4.490;2024-02-26T12:22:22;6.57;;;2.85;;
41446;SDS011;27185;52.040;4.490;2024-02-26T12:25:09;4.95;;;2.50;;
41446;SDS011;27185;52.040;4.490;2024-02-26T12:27:55;7.95;;;2.60;;
41446;SDS011;27185;52.040;4.490;2024-02-26T12:30:41;7.03;;;2.72;;
41446;SDS011;27185;52.040;4.490;2024-02-26T12:33:27;6.63;;;2.97;;
41446;SDS011;27185;52.040;4.490;2024-02-26T12:36:13;4.63;;;2.63;;
41446;SDS011;27185;52.040;4.490;2024-02-26T12:38:59;4.38;;;2.78;;
41446;SDS011;27185;52.040;4.490;2024-02-26T12:41:45;4.78;;;2.55;;
41446;SDS011;27185;52.040;4.490;2024-02-26T12:44:34;4.88;;;2.70;;
41446;SDS011;27185;52.040;4.490;2024-02-26T12:47:20;3.58;;;2.13;;
41446;SDS011;27185;52.040;4.490;2024-02-26T12:50:06;4.93;;;2.58;;
41446;SDS011;27185;52.040;4.490;2024-02-26T12:52:53;5.07;;;2.78;;
41446;SDS011;27185;52.040;4.490;2024-02-26T12:55:39;3.17;;;1.95;;
41446;SDS011;27185;52.040;4.490;2024-02-26T12:58:26;4.47;;;2.25;;
41446;SDS011;27185;52.040;4.490;2024-02-26T13:01:16;6.75;;;2.83;;
41446;SDS011;27185;52.040;4.490;2024-02-26T13:04:06;3.90;;;2.22;;
41446;SDS011;27185;52.040;4.490;2024-02-26T13:06:52;7.30;;;2.60;;
41446;SDS011;27185;52.040;4.490;2024-02-26T13:09:38;4.40;;;2.20;;
41446;SDS011;27185;52.040;4.490;2024-02-26T13:12:23;3.85;;;2.13;;
41446;SDS011;27185;52.040;4.490;2024-02-26T13:15:13;4.43;;;2.35;;
41446;SDS011;27185;52.040;4.490;2024-02-26T13:18:08;4.55;;;2.17;;
41446;SDS011;27185;52.040;4.490;2024-02-26T13:21:13;8.40;;;2.05;;
41446;SDS011;27185;52.040;4.490;2024-02-26T13:24:00;5.05;;;2.10;;
41446;SDS011;27185;52.040;4.490;2024-02-26T13:26:46;3.78;;;2.20;;
41446;SDS011;27185;52.040;4.490;2024-02-26T13:29:31;7.63;;;2.30;;
41446;SDS011;27185;52.040;4.490;2024-02-26T13:32:17;6.18;;;2.72;;
41446;SDS011;27185;52.040;4.490;2024-02-26T13:35:09;6.10;;;2.95;;
41446;SDS011;27185;52.040;4.490;2024-02-26T13:37:56;4.80;;;2.67;;
41446;SDS011;27185;52.040;4.490;2024-02-26T13:40:42;5.60;;;2.50;;
41446;SDS011;27185;52.040;4.490;2024-02-26T13:43:27;6.10;;;2.60;;
41446;SDS011;27185;52.040;4.490;2024-02-26T13:46:13;3.67;;;2.15;;
41446;SDS011;27185;52.040;4.490;2024-02-26T13:49:00;5.55;;;2.72;;
41446;SDS011;27185;52.040;4.490;2024-02-26T13:51:46;5.25;;;2.15;;
41446;SDS011;27185;52.040;4.490;2024-02-26T13:54:31;4.93;;;1.95;;
41446;SDS011;27185;52.040;4.490;2024-02-26T13:57:18;3.17;;;1.80;;
41446;SDS011;27185;52.040;4.490;2024-02-26T14:00:04;6.95;;;2.25;;
41446;SDS011;27185;52.040;4.490;2024-02-26T14:02:51;5.32;;;1.90;;
41446;SDS011;27185;52.040;4.490;2024-02-26T14:05:37;7.45;;;2.30;;
41446;SDS011;27185;52.040;4.490;2024-02-26T14:08:22;3.97;;;1.90;;
41446;SDS011;27185;52.040;4.490;2024-02-26T14:11:08;5.72;;;1.80;;
41446;SDS011;27185;52.040;4.490;2024-02-26T14:13:54;4.60;;;1.90;;
41446;SDS011;27185;52.040;4.490;2024-02-26T14:16:39;6.55;;;2.55;;
41446;SDS011;27185;52.040;4.490;2024-02-26T14:19:25;5.28;;;1.77;;
41446;SDS011;27185;52.040;4.490;2024-02-26T14:22:11;5.72;;;2.13;;
41446;SDS011;27185;52.040;4.490;2024-02-26T14:24:57;4.30;;;1.70;;
41446;SDS011;27185;52.040;4.490;2024-02-26T14:27:44;3.83;;;2.25;;
41446;SDS011;27185;52.040;4.490;2024-02-26T14:30:29;6.82;;;2.63;;
41446;SDS011;27185;52.040;4.490;2024-02-26T14:33:15;4.22;;;1.70;;
41446;SDS011;27185;52.040;4.490;2024-02-26T14:36:00;4.20;;;2.20;;
41446;SDS011;27185;52.040;4.490;2024-02-26T14:38:48;5.80;;;2.33;;
41446;SDS011;27185;52.040;4.490;2024-02-26T14:41:33;8.48;;;3.30;;
41446;SDS011;27185;52.040;4.490;2024-02-26T14:44:19;4.65;;;2.17;;
41446;SDS011;27185;52.040;4.490;2024-02-26T14:47:05;3.83;;;2.08;;
41446;SDS011;27185;52.040;4.490;2024-02-26T14:49:50;5.05;;;2.35;;
41446;SDS011;27185;52.040;4.490;2024-02-26T14:52:36;3.75;;;2.15;;
41446;SDS011;27185;52.040;4.490;2024-02-26T14:55:22;6.85;;;3.15;;
41446;SDS011;27185;52.040;4.490;2024-02-26T14:58:08;8.43;;;2.83;;
41446;SDS011;27185;52.040;4.490;2024-02-26T15:00:56;5.88;;;2.38;;
41446;SDS011;27185;52.040;4.490;2024-02-26T15:03:41;5.05;;;2.72;;
41446;SDS011;27185;52.040;4.490;2024-02-26T15:06:27;5.20;;;2.67;;
41446;SDS011;27185;52.040;4.490;2024-02-26T15:09:12;5.85;;;2.67;;
41446;SDS011;27185;52.040;4.490;2024-02-26T15:11:58;5.85;;;2.50;;
41446;SDS011;27185;52.040;4.490;2024-02-26T15:14:44;8.25;;;2.60;;
41446;SDS011;27185;52.040;4.490;2024-02-26T15:17:30;5.65;;;2.53;;
41446;SDS011;27185;52.040;4.490;2024-02-26T15:20:19;5.07;;;2.60;;
41446;SDS011;27185;52.040;4.490;2024-02-26T15:23:05;5.88;;;2.70;;
41446;SDS011;27185;52.040;4.490;2024-02-26T15:25:51;7.05;;;2.78;;
41446;SDS011;27185;52.040;4.490;2024-02-26T15:28:37;5.43;;;2.63;;
41446;SDS011;27185;52.040;4.490;2024-02-26T15:31:23;4.25;;;2.35;;
41446;SDS011;27185;52.040;4.490;2024-02-26T15:34:09;5.30;;;2.05;;
41446;SDS011;27185;52.040;4.490;2024-02-26T15:36:54;4.45;;;2.35;;
41446;SDS011;27185;52.040;4.490;2024-02-26T15:39:40;6.32;;;2.47;;
41446;SDS011;27185;52.040;4.490;2024-02-26T15:42:26;4.03;;;2.80;;
41446;SDS011;27185;52.040;4.490;2024-02-26T15:45:12;8.15;;;3.33;;
41446;SDS011;27185;52.040;4.490;2024-02-26T15:47:58;7.60;;;2.88;;
41446;SDS011;27185;52.040;4.490;2024-02-26T15:50:43;6.45;;;2.80;;
41446;SDS011;27185;52.040;4.490;2024-02-26T15:53:29;6.30;;;3.13;;
41446;SDS011;27185;52.040;4.490;2024-02-26T15:56:15;6.93;;;3.53;;
41446;SDS011;27185;52.040;4.490;2024-02-26T15:59:02;9.07;;;3.10;;
41446;SDS011;27185;52.040;4.490;2024-02-26T16:01:47;7.35;;;2.88;;
41446;SDS011;27185;52.040;4.490;2024-02-26T16:04:34;4.82;;;2.55;;
41446;SDS011;27185;52.040;4.490;2024-02-26T16:07:41;9.02;;;2.80;;
41446;SDS011;27185;52.040;4.490;2024-02-26T16:10:31;3.85;;;2.17;;
41446;SDS011;27185;52.040;4.490;2024-02-26T16:13:16;5.72;;;2.75;;
41446;SDS011;27185;52.040;4.490;2024-02-26T16:16:03;5.78;;;2.90;;
41446;SDS011;27185;52.040;4.490;2024-02-26T16:18:54;5.15;;;2.75;;
41446;SDS011;27185;52.040;4.490;2024-02-26T16:21:50;9.27;;;3.17;;
41446;SDS011;27185;52.040;4.490;2024-02-26T16:24:36;7.43;;;2.92;;
41446;SDS011;27185;52.040;4.490;2024-02-26T16:27:21;7.15;;;3.63;;
41446;SDS011;27185;52.040;4.490;2024-02-26T16:30:07;4.75;;;2.13;;
41446;SDS011;27185;52.040;4.490;2024-02-26T16:32:54;6.47;;;2.90;;
41446;SDS011;27185;52.040;4.490;2024-02-26T16:35:39;5.80;;;3.40;;
41446;SDS011;27185;52.040;4.490;2024-02-26T16:38:26;7.80;;;2.63;;
41446;SDS011;27185;52.040;4.490;2024-02-26T16:41:11;6.53;;;2.83;;
41446;SDS011;27185;52.040;4.490;2024-02-26T16:43:58;6.43;;;2.47;;